sensor_id;sensor_type;location;lat;lon;timestamp;P1;durP1;ratioP1;P2;durP2;ratioP2
72379;SDS011;60354;47.798;12.472;2023-08-06T00:01:12;2.63;;;1.95;;
72379;SDS011;60354;47.798;12.472;2023-08-06T00:03:38;2.58;;;2.35;;
72379;SDS011;60354;47.798;12.472;2023-08-06T00:06:06;3.10;;;2.10;;
72379;SDS011;60354;47.798;12.472;2023-08-06T00:08:31;3.97;;;2.05;;
72379;SDS011;60354;47.798;12.472;2023-08-06T00:11:00;2.67;;;2.10;;
72379;SDS011;60354;47.798;12.472;2023-08-06T00:13:25;3.80;;;1.90;;
72379;SDS011;60354;47.798;12.472;2023-08-06T00:15:51;4.32;;;2.10;;
72379;SDS011;60354;47.798;12.472;2023-08-06T00:18:16;2.67;;;2.40;;
72379;SDS011;60354;47.798;12.472;2023-08-06T00:20:42;2.38;;;2.10;;
72379;SDS011;60354;47.798;12.472;2023-08-06T00:23:07;3.75;;;2.30;;
72379;SDS011;60354;47.798;12.472;2023-08-06T00:25:33;3.00;;;2.28;;
72379;SDS011;60354;47.798;12.472;2023-08-06T00:27:59;3.95;;;2.03;;
72379;SDS011;60354;47.798;12.472;2023-08-06T00:30:24;4.10;;;2.50;;
72379;SDS011;60354;47.798;12.472;2023-08-06T00:32:50;4.18;;;2.58;;
72379;SDS011;60354;47.798;12.472;2023-08-06T00:35:15;2.17;;;1.98;;
72379;SDS011;60354;47.798;12.472;2023-08-06T00:37:41;2.90;;;2.30;;
72379;SDS011;60354;47.798;12.472;2023-08-06T00:40:07;2.70;;;2.08;;
72379;SDS011;60354;47.798;12.472;2023-08-06T00:42:33;3.22;;;2.00;;
72379;SDS011;60354;47.798;12.472;2023-08-06T00:45:00;3.38;;;2.15;;
72379;SDS011;60354;47.798;12.472;2023-08-06T00:47:26;3.03;;;1.85;;
72379;SDS011;60354;47.798;12.472;2023-08-06T00:49:51;3.28;;;1.80;;
72379;SDS011;60354;47.798;12.472;2023-08-06T00:52:17;2.00;;;1.80;;
72379;SDS011;60354;47.798;12.472;2023-08-06T00:54:43;4.30;;;2.25;;
72379;SDS011;60354;47.798;12.472;2023-08-06T00:57:08;2.72;;;2.20;;
72379;SDS011;60354;47.798;12.472;2023-08-06T00:59:34;2.35;;;1.90;;
72379;SDS011;60354;47.798;12.472;2023-08-06T01:02:00;2.88;;;1.92;;
72379;SDS011;60354;47.798;12.472;2023-08-06T01:04:26;2.95;;;1.80;;
72379;SDS011;60354;47.798;12.472;2023-08-06T01:06:53;1.98;;;1.75;;
72379;SDS011;60354;47.798;12.472;2023-08-06T01:09:27;2.60;;;1.98;;
72379;SDS011;60354;47.798;12.472;2023-08-06T01:12:16;2.15;;;1.80;;
72379;SDS011;60354;47.798;12.472;2023-08-06T01:14:57;5.35;;;1.85;;
72379;SDS011;60354;47.798;12.472;2023-08-06T01:17:33;2.53;;;1.75;;
72379;SDS011;60354;47.798;12.472;2023-08-06T01:19:59;2.38;;;1.70;;
72379;SDS011;60354;47.798;12.472;2023-08-06T01:22:24;1.80;;;1.60;;
72379;SDS011;60354;47.798;12.472;2023-08-06T01:24:50;3.05;;;1.73;;
72379;SDS011;60354;47.798;12.472;2023-08-06T01:27:29;2.47;;;1.70;;
72379;SDS011;60354;47.798;12.472;2023-08-06T01:30:03;1.70;;;1.60;;
72379;SDS011;60354;47.798;12.472;2023-08-06T01:32:33;2.42;;;1.60;;
72379;SDS011;60354;47.798;12.472;2023-08-06T01:35:00;2.53;;;1.55;;
72379;SDS011;60354;47.798;12.472;2023-08-06T01:37:29;1.85;;;1.60;;
72379;SDS011;60354;47.798;12.472;2023-08-06T01:39:55;3.63;;;1.50;;
72379;SDS011;60354;47.798;12.472;2023-08-06T01:42:20;2.25;;;1.50;;
72379;SDS011;60354;47.798;12.472;2023-08-06T01:44:46;2.22;;;1.40;;
72379;SDS011;60354;47.798;12.472;2023-08-06T01:47:11;3.00;;;1.60;;
72379;SDS011;60354;47.798;12.472;2023-08-06T01:49:37;3.03;;;2.00;;
72379;SDS011;60354;47.798;12.472;2023-08-06T01:52:03;3.42;;;2.50;;
72379;SDS011;60354;47.798;12.472;2023-08-06T01:54:28;3.30;;;2.13;;
72379;SDS011;60354;47.798;12.472;2023-08-06T01:56:54;4.70;;;2.20;;
72379;SDS011;60354;47.798;12.472;2023-08-06T01:59:20;3.60;;;2.00;;
72379;SDS011;60354;47.798;12.472;2023-08-06T02:01:46;2.83;;;2.20;;
72379;SDS011;60354;47.798;12.472;2023-08-06T02:04:11;5.70;;;2.08;;
72379;SDS011;60354;47.798;12.472;2023-08-06T02:06:37;6.18;;;2.38;;
72379;SDS011;60354;47.798;12.472;2023-08-06T02:09:02;3.05;;;2.10;;
72379;SDS011;60354;47.798;12.472;2023-08-06T02:11:27;2.45;;;1.90;;
72379;SDS011;60354;47.798;12.472;2023-08-06T02:13:53;6.60;;;1.85;;
72379;SDS011;60354;47.798;12.472;2023-08-06T02:16:19;5.00;;;1.90;;
72379;SDS011;60354;47.798;12.472;2023-08-06T02:18:45;2.38;;;1.90;;
72379;SDS011;60354;47.798;12.472;2023-08-06T02:21:10;2.22;;;1.80;;
72379;SDS011;60354;47.798;12.472;2023-08-06T02:23:36;2.13;;;1.60;;
72379;SDS011;60354;47.798;12.472;2023-08-06T02:26:02;2.30;;;1.70;;
72379;SDS011;60354;47.798;12.472;2023-08-06T02:28:29;2.50;;;1.60;;
72379;SDS011;60354;47.798;12.472;2023-08-06T02:30:54;2.78;;;1.77;;
72379;SDS011;60354;47.798;12.472;2023-08-06T02:33:20;2.97;;;1.40;;
72379;SDS011;60354;47.798;12.472;2023-08-06T02:35:46;2.92;;;1.60;;
72379;SDS011;60354;47.798;12.472;2023-08-06T02:38:12;2.42;;;1.63;;
72379;SDS011;60354;47.798;12.472;2023-08-06T02:40:43;3.70;;;1.65;;
72379;SDS011;60354;47.798;12.472;2023-08-06T02:43:09;3.78;;;1.58;;
72379;SDS011;60354;47.798;12.472;2023-08-06T02:45:35;2.58;;;1.40;;
72379;SDS011;60354;47.798;12.472;2023-08-06T02:48:00;1.63;;;1.30;;
72379;SDS011;60354;47.798;12.472;2023-08-06T02:50:27;1.45;;;1.20;;
72379;SDS011;60354;47.798;12.472;2023-08-06T02:52:52;1.95;;;1.40;;
72379;SDS011;60354;47.798;12.472;2023-08-06T02:55:18;1.98;;;1.50;;
72379;SDS011;60354;47.798;12.472;2023-08-06T02:57:46;2.15;;;1.42;;
72379;SDS011;60354;47.798;12.472;2023-08-06T03:00:12;2.50;;;1.67;;
72379;SDS011;60354;47.798;12.472;2023-08-06T03:02:38;3.22;;;1.55;;
72379;SDS011;60354;47.798;12.472;2023-08-06T03:05:18;2.10;;;1.58;;
72379;SDS011;60354;47.798;12.472;2023-08-06T03:07:45;3.08;;;1.40;;
72379;SDS011;60354;47.798;12.472;2023-08-06T03:10:17;3.47;;;1.40;;
72379;SDS011;60354;47.798;12.472;2023-08-06T03:12:43;2.10;;;1.55;;
72379;SDS011;60354;47.798;12.472;2023-08-06T03:15:09;1.60;;;1.30;;
72379;SDS011;60354;47.798;12.472;2023-08-06T03:17:34;3.40;;;1.70;;
72379;SDS011;60354;47.798;12.472;2023-08-06T03:20:02;2.45;;;1.50;;
72379;SDS011;60354;47.798;12.472;2023-08-06T03:22:29;4.45;;;1.63;;
72379;SDS011;60354;47.798;12.472;2023-08-06T03:24:54;3.60;;;1.40;;
72379;SDS011;60354;47.798;12.472;2023-08-06T03:27:22;3.10;;;1.40;;
72379;SDS011;60354;47.798;12.472;2023-08-06T03:29:50;2.85;;;1.77;;
72379;SDS011;60354;47.798;12.472;2023-08-06T03:32:17;2.47;;;1.50;;
72379;SDS011;60354;47.798;12.472;2023-08-06T03:34:43;2.20;;;1.60;;
72379;SDS011;60354;47.798;12.472;2023-08-06T03:37:08;1.92;;;1.50;;
72379;SDS011;60354;47.798;12.472;2023-08-06T03:39:34;3.30;;;1.70;;
72379;SDS011;60354;47.798;12.472;2023-08-06T03:42:00;4.43;;;1.75;;
72379;SDS011;60354;47.798;12.472;2023-08-06T03:44:26;3.05;;;1.70;;
72379;SDS011;60354;47.798;12.472;2023-08-06T03:46:53;2.83;;;1.70;;
72379;SDS011;60354;47.798;12.472;2023-08-06T03:49:18;4.15;;;2.00;;
72379;SDS011;60354;47.798;12.472;2023-08-06T03:51:45;2.40;;;1.60;;
72379;SDS011;60354;47.798;12.472;2023-08-06T03:54:11;2.97;;;1.70;;
72379;SDS011;60354;47.798;12.472;2023-08-06T03:56:37;3.05;;;1.90;;
72379;SDS011;60354;47.798;12.472;2023-08-06T03:59:02;6.05;;;1.83;;
72379;SDS011;60354;47.798;12.472;2023-08-06T04:01:28;3.20;;;1.90;;
72379;SDS011;60354;47.798;12.472;2023-08-06T04:03:53;3.13;;;1.60;;
72379;SDS011;60354;47.798;12.472;2023-08-06T04:06:19;2.15;;;1.52;;
72379;SDS011;60354;47.798;12.472;2023-08-06T04:08:44;4.13;;;1.42;;
72379;SDS011;60354;47.798;12.472;2023-08-06T04:11:13;2.70;;;1.90;;
72379;SDS011;60354;47.798;12.472;2023-08-06T04:13:44;3.85;;;2.70;;
72379;SDS011;60354;47.798;12.472;2023-08-06T04:16:09;3.42;;;1.70;;
72379;SDS011;60354;47.798;12.472;2023-08-06T04:18:35;3.45;;;1.92;;
72379;SDS011;60354;47.798;12.472;2023-08-06T04:21:01;2.10;;;1.67;;
72379;SDS011;60354;47.798;12.472;2023-08-06T04:23:27;3.25;;;1.52;;
72379;SDS011;60354;47.798;12.472;2023-08-06T04:25:56;2.83;;;1.90;;
72379;SDS011;60354;47.798;12.472;2023-08-06T04:28:25;2.28;;;1.70;;
72379;SDS011;60354;47.798;12.472;2023-08-06T04:30:51;2.35;;;1.60;;
72379;SDS011;60354;47.798;12.472;2023-08-06T04:33:18;3.58;;;1.80;;
72379;SDS011;60354;47.798;12.472;2023-08-06T04:35:45;4.25;;;1.65;;
72379;SDS011;60354;47.798;12.472;2023-08-06T04:38:11;2.00;;;1.50;;
72379;SDS011;60354;47.798;12.472;2023-08-06T04:40:36;2.53;;;1.65;;
72379;SDS011;60354;47.798;12.472;2023-08-06T04:43:02;2.88;;;1.55;;
72379;SDS011;60354;47.798;12.472;2023-08-06T04:45:31;2.60;;;1.38;;
72379;SDS011;60354;47.798;12.472;2023-08-06T04:47:56;3.28;;;1.30;;
72379;SDS011;60354;47.798;12.472;2023-08-06T04:50:22;2.10;;;1.48;;
72379;SDS011;60354;47.798;12.472;2023-08-06T04:52:47;1.33;;;1.20;;
72379;SDS011;60354;47.798;12.472;2023-08-06T04:55:13;1.63;;;1.05;;
72379;SDS011;60354;47.798;12.472;2023-08-06T04:57:38;2.45;;;1.23;;
72379;SDS011;60354;47.798;12.472;2023-08-06T05:00:04;2.22;;;1.20;;
72379;SDS011;60354;47.798;12.472;2023-08-06T05:02:31;2.03;;;1.27;;
72379;SDS011;60354;47.798;12.472;2023-08-06T05:05:03;1.63;;;1.10;;
72379;SDS011;60354;47.798;12.472;2023-08-06T05:07:28;2.03;;;1.30;;
72379;SDS011;60354;47.798;12.472;2023-08-06T05:09:54;1.30;;;1.10;;
72379;SDS011;60354;47.798;12.472;2023-08-06T05:12:19;2.17;;;1.30;;
72379;SDS011;60354;47.798;12.472;2023-08-06T05:14:45;2.42;;;1.20;;
72379;SDS011;60354;47.798;12.472;2023-08-06T05:17:10;3.33;;;1.15;;
72379;SDS011;60354;47.798;12.472;2023-08-06T05:19:35;1.75;;;1.10;;
72379;SDS011;60354;47.798;12.472;2023-08-06T05:22:01;1.65;;;1.25;;
72379;SDS011;60354;47.798;12.472;2023-08-06T05:24:27;2.00;;;1.23;;
72379;SDS011;60354;47.798;12.472;2023-08-06T05:26:52;1.73;;;1.15;;
72379;SDS011;60354;47.798;12.472;2023-08-06T05:29:18;2.00;;;1.30;;
72379;SDS011;60354;47.798;12.472;2023-08-06T05:31:43;1.25;;;0.98;;
72379;SDS011;60354;47.798;12.472;2023-08-06T05:34:09;2.72;;;1.20;;
72379;SDS011;60354;47.798;12.472;2023-08-06T05:36:34;3.65;;;1.30;;
72379;SDS011;60354;47.798;12.472;2023-08-06T05:39:00;1.65;;;1.10;;
72379;SDS011;60354;47.798;12.472;2023-08-06T05:41:25;2.38;;;1.15;;
72379;SDS011;60354;47.798;12.472;2023-08-06T05:43:51;1.60;;;1.15;;
72379;SDS011;60354;47.798;12.472;2023-08-06T05:46:16;1.60;;;1.10;;
72379;SDS011;60354;47.798;12.472;2023-08-06T05:48:42;1.77;;;1.10;;
72379;SDS011;60354;47.798;12.472;2023-08-06T05:51:07;1.67;;;1.10;;
72379;SDS011;60354;47.798;12.472;2023-08-06T05:53:33;2.85;;;1.20;;
72379;SDS011;60354;47.798;12.472;2023-08-06T05:55:58;2.10;;;1.10;;
72379;SDS011;60354;47.798;12.472;2023-08-06T05:58:24;1.95;;;1.08;;
72379;SDS011;60354;47.798;12.472;2023-08-06T06:00:51;1.70;;;1.20;;
72379;SDS011;60354;47.798;12.472;2023-08-06T06:03:17;1.50;;;1.10;;
72379;SDS011;60354;47.798;12.472;2023-08-06T06:05:42;2.03;;;1.20;;
72379;SDS011;60354;47.798;12.472;2023-08-06T06:08:08;2.50;;;1.10;;
72379;SDS011;60354;47.798;12.472;2023-08-06T06:10:33;2.28;;;1.30;;
72379;SDS011;60354;47.798;12.472;2023-08-06T06:13:00;1.98;;;1.20;;
72379;SDS011;60354;47.798;12.472;2023-08-06T06:15:25;2.13;;;1.40;;
72379;SDS011;60354;47.798;12.472;2023-08-06T06:17:50;2.20;;;1.25;;
72379;SDS011;60354;47.798;12.472;2023-08-06T06:20:16;1.90;;;1.20;;
72379;SDS011;60354;47.798;12.472;2023-08-06T06:22:42;2.33;;;1.30;;
72379;SDS011;60354;47.798;12.472;2023-08-06T06:25:08;2.17;;;1.38;;
72379;SDS011;60354;47.798;12.472;2023-08-06T06:27:34;1.40;;;1.10;;
72379;SDS011;60354;47.798;12.472;2023-08-06T06:30:00;1.80;;;1.20;;
72379;SDS011;60354;47.798;12.472;2023-08-06T06:32:26;2.17;;;1.23;;
72379;SDS011;60354;47.798;12.472;2023-08-06T06:34:51;1.85;;;1.20;;
72379;SDS011;60354;47.798;12.472;2023-08-06T06:37:17;4.43;;;1.20;;
72379;SDS011;60354;47.798;12.472;2023-08-06T06:39:42;1.38;;;1.00;;
72379;SDS011;60354;47.798;12.472;2023-08-06T06:42:09;1.42;;;1.10;;
72379;SDS011;60354;47.798;12.472;2023-08-06T06:44:41;1.30;;;1.10;;
72379;SDS011;60354;47.798;12.472;2023-08-06T06:47:06;1.85;;;1.00;;
72379;SDS011;60354;47.798;12.472;2023-08-06T06:49:32;1.30;;;0.85;;
72379;SDS011;60354;47.798;12.472;2023-08-06T06:51:57;1.67;;;1.02;;
72379;SDS011;60354;47.798;12.472;2023-08-06T06:54:23;2.63;;;0.98;;
72379;SDS011;60354;47.798;12.472;2023-08-06T06:56:48;2.45;;;1.00;;
72379;SDS011;60354;47.798;12.472;2023-08-06T06:59:14;3.63;;;1.10;;
72379;SDS011;60354;47.798;12.472;2023-08-06T07:01:39;3.72;;;1.00;;
72379;SDS011;60354;47.798;12.472;2023-08-06T07:04:04;2.22;;;1.02;;
72379;SDS011;60354;47.798;12.472;2023-08-06T07:06:30;1.27;;;1.00;;
72379;SDS011;60354;47.798;12.472;2023-08-06T07:08:56;2.55;;;1.00;;
72379;SDS011;60354;47.798;12.472;2023-08-06T07:11:22;2.83;;;1.10;;
72379;SDS011;60354;47.798;12.472;2023-08-06T07:13:47;1.65;;;1.10;;
72379;SDS011;60354;47.798;12.472;2023-08-06T07:16:15;2.03;;;1.10;;
72379;SDS011;60354;47.798;12.472;2023-08-06T07:18:40;2.22;;;1.33;;
72379;SDS011;60354;47.798;12.472;2023-08-06T07:21:05;1.67;;;0.95;;
72379;SDS011;60354;47.798;12.472;2023-08-06T07:23:31;1.98;;;1.00;;
72379;SDS011;60354;47.798;12.472;2023-08-06T07:25:56;1.45;;;1.00;;
72379;SDS011;60354;47.798;12.472;2023-08-06T07:28:22;5.10;;;1.10;;
72379;SDS011;60354;47.798;12.472;2023-08-06T07:30:48;1.92;;;1.10;;
72379;SDS011;60354;47.798;12.472;2023-08-06T07:33:13;2.25;;;1.08;;
72379;SDS011;60354;47.798;12.472;2023-08-06T07:35:39;1.10;;;1.00;;
72379;SDS011;60354;47.798;12.472;2023-08-06T07:38:04;1.88;;;0.90;;
72379;SDS011;60354;47.798;12.472;2023-08-06T07:40:30;2.20;;;0.90;;
72379;SDS011;60354;47.798;12.472;2023-08-06T07:42:56;1.27;;;1.00;;
72379;SDS011;60354;47.798;12.472;2023-08-06T07:45:21;2.40;;;1.08;;
72379;SDS011;60354;47.798;12.472;2023-08-06T07:47:46;1.38;;;1.10;;
72379;SDS011;60354;47.798;12.472;2023-08-06T07:50:12;2.50;;;1.05;;
72379;SDS011;60354;47.798;12.472;2023-08-06T07:52:38;1.90;;;1.10;;
72379;SDS011;60354;47.798;12.472;2023-08-06T07:55:04;1.98;;;1.20;;
72379;SDS011;60354;47.798;12.472;2023-08-06T07:57:30;1.35;;;0.95;;
72379;SDS011;60354;47.798;12.472;2023-08-06T07:59:56;2.00;;;1.00;;
72379;SDS011;60354;47.798;12.472;2023-08-06T08:02:21;1.50;;;0.93;;
72379;SDS011;60354;47.798;12.472;2023-08-06T08:04:47;2.47;;;1.05;;
72379;SDS011;60354;47.798;12.472;2023-08-06T08:07:13;2.00;;;1.25;;
72379;SDS011;60354;47.798;12.472;2023-08-06T08:09:38;1.88;;;0.93;;
72379;SDS011;60354;47.798;12.472;2023-08-06T08:12:04;2.22;;;1.10;;
72379;SDS011;60354;47.798;12.472;2023-08-06T08:14:30;1.27;;;1.02;;
72379;SDS011;60354;47.798;12.472;2023-08-06T08:17:00;2.22;;;1.10;;
72379;SDS011;60354;47.798;12.472;2023-08-06T08:19:29;2.97;;;1.00;;
72379;SDS011;60354;47.798;12.472;2023-08-06T08:21:55;3.25;;;1.30;;
72379;SDS011;60354;47.798;12.472;2023-08-06T08:24:21;3.78;;;1.30;;
72379;SDS011;60354;47.798;12.472;2023-08-06T08:26:49;2.40;;;1.05;;
72379;SDS011;60354;47.798;12.472;2023-08-06T08:29:15;2.25;;;1.08;;
72379;SDS011;60354;47.798;12.472;2023-08-06T08:31:41;2.55;;;0.90;;
72379;SDS011;60354;47.798;12.472;2023-08-06T08:34:06;4.13;;;1.10;;
72379;SDS011;60354;47.798;12.472;2023-08-06T08:36:32;2.00;;;1.10;;
72379;SDS011;60354;47.798;12.472;2023-08-06T08:38:57;1.67;;;1.05;;
72379;SDS011;60354;47.798;12.472;2023-08-06T08:41:23;2.50;;;1.13;;
72379;SDS011;60354;47.798;12.472;2023-08-06T08:43:50;3.53;;;1.30;;
72379;SDS011;60354;47.798;12.472;2023-08-06T08:46:19;2.92;;;1.20;;
72379;SDS011;60354;47.798;12.472;2023-08-06T08:48:45;1.75;;;1.00;;
72379;SDS011;60354;47.798;12.472;2023-08-06T08:51:11;2.13;;;1.20;;
72379;SDS011;60354;47.798;12.472;2023-08-06T08:53:37;1.38;;;0.80;;
72379;SDS011;60354;47.798;12.472;2023-08-06T08:56:04;1.83;;;0.80;;
72379;SDS011;60354;47.798;12.472;2023-08-06T08:58:30;2.83;;;0.80;;
72379;SDS011;60354;47.798;12.472;2023-08-06T09:00:56;1.75;;;0.90;;
72379;SDS011;60354;47.798;12.472;2023-08-06T09:03:22;1.40;;;0.70;;
72379;SDS011;60354;47.798;12.472;2023-08-06T09:05:49;0.98;;;0.63;;
72379;SDS011;60354;47.798;12.472;2023-08-06T09:08:18;1.88;;;0.82;;
72379;SDS011;60354;47.798;12.472;2023-08-06T09:10:49;1.38;;;0.77;;
72379;SDS011;60354;47.798;12.472;2023-08-06T09:13:17;2.08;;;0.70;;
72379;SDS011;60354;47.798;12.472;2023-08-06T09:15:43;3.60;;;0.70;;
72379;SDS011;60354;47.798;12.472;2023-08-06T09:18:12;1.48;;;0.70;;
72379;SDS011;60354;47.798;12.472;2023-08-06T09:20:38;0.93;;;0.60;;
72379;SDS011;60354;47.798;12.472;2023-08-06T09:23:10;2.83;;;0.52;;
72379;SDS011;60354;47.798;12.472;2023-08-06T09:25:38;1.20;;;0.60;;
72379;SDS011;60354;47.798;12.472;2023-08-06T09:28:05;1.38;;;0.55;;
72379;SDS011;60354;47.798;12.472;2023-08-06T09:30:35;1.17;;;0.60;;
72379;SDS011;60354;47.798;12.472;2023-08-06T09:33:02;1.58;;;0.60;;
72379;SDS011;60354;47.798;12.472;2023-08-06T09:35:28;2.72;;;0.60;;
72379;SDS011;60354;47.798;12.472;2023-08-06T09:37:55;1.65;;;0.60;;
72379;SDS011;60354;47.798;12.472;2023-08-06T09:40:24;0.85;;;0.45;;
72379;SDS011;60354;47.798;12.472;2023-08-06T09:42:51;1.00;;;0.50;;
72379;SDS011;60354;47.798;12.472;2023-08-06T09:45:17;0.55;;;0.50;;
72379;SDS011;60354;47.798;12.472;2023-08-06T09:47:42;1.20;;;0.40;;
72379;SDS011;60354;47.798;12.472;2023-08-06T09:50:18;0.55;;;0.40;;
72379;SDS011;60354;47.798;12.472;2023-08-06T09:52:45;3.55;;;0.40;;
72379;SDS011;60354;47.798;12.472;2023-08-06T09:55:12;1.10;;;0.52;;
72379;SDS011;60354;47.798;12.472;2023-08-06T09:57:39;0.68;;;0.25;;
72379;SDS011;60354;47.798;12.472;2023-08-06T10:00:06;0.85;;;0.28;;
72379;SDS011;60354;47.798;12.472;2023-08-06T10:02:38;2.05;;;0.38;;
72379;SDS011;60354;47.798;12.472;2023-08-06T10:05:04;0.77;;;0.30;;
72379;SDS011;60354;47.798;12.472;2023-08-06T10:07:33;0.40;;;0.30;;
72379;SDS011;60354;47.798;12.472;2023-08-06T10:09:59;1.52;;;0.25;;
72379;SDS011;60354;47.798;12.472;2023-08-06T10:12:26;0.63;;;0.25;;
72379;SDS011;60354;47.798;12.472;2023-08-06T10:14:55;0.38;;;0.28;;
72379;SDS011;60354;47.798;12.472;2023-08-06T10:17:24;1.23;;;0.40;;
72379;SDS011;60354;47.798;12.472;2023-08-06T10:19:50;0.88;;;0.20;;
72379;SDS011;60354;47.798;12.472;2023-08-06T10:22:19;0.63;;;0.10;;
72379;SDS011;60354;47.798;12.472;2023-08-06T10:32:48;0.50;;;0.25;;
72379;SDS011;60354;47.798;12.472;2023-08-06T10:35:31;0.35;;;0.30;;
72379;SDS011;60354;47.798;12.472;2023-08-06T10:38:14;0.88;;;0.30;;
72379;SDS011;60354;47.798;12.472;2023-08-06T10:40:50;0.60;;;0.30;;
72379;SDS011;60354;47.798;12.472;2023-08-06T10:43:36;0.98;;;0.30;;
72379;SDS011;60354;47.798;12.472;2023-08-06T10:46:11;0.40;;;0.28;;
72379;SDS011;60354;47.798;12.472;2023-08-06T10:48:45;1.85;;;0.40;;
72379;SDS011;60354;47.798;12.472;2023-08-06T10:51:12;0.80;;;0.20;;
72379;SDS011;60354;47.798;12.472;2023-08-06T10:53:41;2.60;;;0.20;;
72379;SDS011;60354;47.798;12.472;2023-08-06T10:56:20;2.10;;;0.28;;
72379;SDS011;60354;47.798;12.472;2023-08-06T10:58:48;3.75;;;0.30;;
72379;SDS011;60354;47.798;12.472;2023-08-06T11:01:14;0.75;;;0.30;;
72379;SDS011;60354;47.798;12.472;2023-08-06T11:03:41;1.02;;;0.20;;
72379;SDS011;60354;47.798;12.472;2023-08-06T11:06:07;0.90;;;0.20;;
72379;SDS011;60354;47.798;12.472;2023-08-06T11:08:37;3.40;;;0.20;;
72379;SDS011;60354;47.798;12.472;2023-08-06T11:11:13;1.45;;;0.20;;
72379;SDS011;60354;47.798;12.472;2023-08-06T11:13:43;0.55;;;0.10;;
72379;SDS011;60354;47.798;12.472;2023-08-06T11:16:12;0.40;;;0.20;;
72379;SDS011;60354;47.798;12.472;2023-08-06T11:18:39;3.40;;;0.20;;
72379;SDS011;60354;47.798;12.472;2023-08-06T11:21:05;0.10;;;0.10;;
72379;SDS011;60354;47.798;12.472;2023-08-06T11:23:31;1.20;;;0.20;;
72379;SDS011;60354;47.798;12.472;2023-08-06T11:25:56;0.52;;;0.10;;
72379;SDS011;60354;47.798;12.472;2023-08-06T11:28:23;0.35;;;0.20;;
72379;SDS011;60354;47.798;12.472;2023-08-06T11:30:49;0.80;;;0.10;;
72379;SDS011;60354;47.798;12.472;2023-08-06T11:33:19;0.45;;;0.08;;
72379;SDS011;60354;47.798;12.472;2023-08-06T11:35:54;0.28;;;0.20;;
72379;SDS011;60354;47.798;12.472;2023-08-06T11:38:21;1.90;;;0.10;;
72379;SDS011;60354;47.798;12.472;2023-08-06T11:40:50;0.38;;;0.10;;
72379;SDS011;60354;47.798;12.472;2023-08-06T11:43:16;0.10;;;0.10;;
72379;SDS011;60354;47.798;12.472;2023-08-06T11:45:43;0.35;;;0.10;;
72379;SDS011;60354;47.798;12.472;2023-08-06T11:48:09;0.88;;;0.10;;
72379;SDS011;60354;47.798;12.472;2023-08-06T11:50:38;0.15;;;0.03;;
72379;SDS011;60354;47.798;12.472;2023-08-06T11:53:16;0.73;;;0.08;;
72379;SDS011;60354;47.798;12.472;2023-08-06T11:55:41;1.55;;;0.20;;
72379;SDS011;60354;47.798;12.472;2023-08-06T11:58:08;0.85;;;0.20;;
72379;SDS011;60354;47.798;12.472;2023-08-06T12:00:35;3.53;;;0.20;;
72379;SDS011;60354;47.798;12.472;2023-08-06T12:03:01;0.43;;;0.40;;
72379;SDS011;60354;47.798;12.472;2023-08-06T12:05:30;0.38;;;0.10;;
72379;SDS011;60354;47.798;12.472;2023-08-06T12:07:58;0.10;;;0.00;;
72379;SDS011;60354;47.798;12.472;2023-08-06T12:10:28;1.10;;;0.10;;
72379;SDS011;60354;47.798;12.472;2023-08-06T12:12:55;0.95;;;0.10;;
72379;SDS011;60354;47.798;12.472;2023-08-06T12:15:21;1.35;;;0.20;;
72379;SDS011;60354;47.798;12.472;2023-08-06T12:17:47;0.10;;;0.10;;
72379;SDS011;60354;47.798;12.472;2023-08-06T12:20:13;0.10;;;0.00;;
72379;SDS011;60354;47.798;12.472;2023-08-06T12:22:39;0.57;;;0.10;;
72379;SDS011;60354;47.798;12.472;2023-08-06T12:25:05;0.10;;;0.10;;
72379;SDS011;60354;47.798;12.472;2023-08-06T12:27:33;0.93;;;0.00;;
72379;SDS011;60354;47.798;12.472;2023-08-06T12:29:59;0.00;;;0.00;;
72379;SDS011;60354;47.798;12.472;2023-08-06T12:32:25;0.20;;;0.10;;
72379;SDS011;60354;47.798;12.472;2023-08-06T12:34:51;0.00;;;0.00;;
72379;SDS011;60354;47.798;12.472;2023-08-06T12:37:16;0.03;;;0.03;;
72379;SDS011;60354;47.798;12.472;2023-08-06T12:39:41;0.47;;;0.00;;
72379;SDS011;60354;47.798;12.472;2023-08-06T12:42:07;0.00;;;0.00;;
72379;SDS011;60354;47.798;12.472;2023-08-06T12:44:32;0.95;;;0.10;;
72379;SDS011;60354;47.798;12.472;2023-08-06T12:46:58;0.00;;;0.00;;
72379;SDS011;60354;47.798;12.472;2023-08-06T12:49:24;0.10;;;0.10;;
72379;SDS011;60354;47.798;12.472;2023-08-06T12:51:51;0.08;;;0.08;;
72379;SDS011;60354;47.798;12.472;2023-08-06T12:54:17;0.08;;;0.08;;
72379;SDS011;60354;47.798;12.472;2023-08-06T12:56:44;0.17;;;0.05;;
72379;SDS011;60354;47.798;12.472;2023-08-06T12:59:10;2.60;;;0.20;;
72379;SDS011;60354;47.798;12.472;2023-08-06T13:01:37;1.35;;;0.10;;
72379;SDS011;60354;47.798;12.472;2023-08-06T13:04:03;0.38;;;0.10;;
72379;SDS011;60354;47.798;12.472;2023-08-06T13:06:28;0.00;;;0.00;;
72379;SDS011;60354;47.798;12.472;2023-08-06T13:08:55;0.70;;;0.00;;
72379;SDS011;60354;47.798;12.472;2023-08-06T13:11:21;0.03;;;0.03;;
72379;SDS011;60354;47.798;12.472;2023-08-06T13:13:47;1.27;;;0.10;;
72379;SDS011;60354;47.798;12.472;2023-08-06T13:16:13;0.00;;;0.00;;
72379;SDS011;60354;47.798;12.472;2023-08-06T13:18:38;0.00;;;0.00;;
72379;SDS011;60354;47.798;12.472;2023-08-06T13:21:03;0.00;;;0.00;;
72379;SDS011;60354;47.798;12.472;2023-08-06T13:23:29;0.47;;;0.10;;
72379;SDS011;60354;47.798;12.472;2023-08-06T13:25:54;0.30;;;0.10;;
72379;SDS011;60354;47.798;12.472;2023-08-06T13:28:20;0.47;;;0.10;;
72379;SDS011;60354;47.798;12.472;2023-08-06T13:30:46;0.08;;;0.05;;
72379;SDS011;60354;47.798;12.472;2023-08-06T13:33:12;1.85;;;0.10;;
72379;SDS011;60354;47.798;12.472;2023-08-06T13:35:37;0.32;;;0.10;;
72379;SDS011;60354;47.798;12.472;2023-08-06T13:38:03;0.15;;;0.00;;
72379;SDS011;60354;47.798;12.472;2023-08-06T13:40:29;0.00;;;0.00;;
72379;SDS011;60354;47.798;12.472;2023-08-06T13:42:57;0.00;;;0.00;;
72379;SDS011;60354;47.798;12.472;2023-08-06T13:45:22;0.10;;;0.10;;
72379;SDS011;60354;47.798;12.472;2023-08-06T13:47:48;0.15;;;0.13;;
72379;SDS011;60354;47.798;12.472;2023-08-06T13:50:13;0.03;;;0.00;;
72379;SDS011;60354;47.798;12.472;2023-08-06T13:52:39;0.38;;;0.10;;
72379;SDS011;60354;47.798;12.472;2023-08-06T13:55:05;0.10;;;0.10;;
72379;SDS011;60354;47.798;12.472;2023-08-06T13:57:31;0.15;;;0.10;;
72379;SDS011;60354;47.798;12.472;2023-08-06T13:59:57;0.43;;;0.10;;
72379;SDS011;60354;47.798;12.472;2023-08-06T14:02:23;0.22;;;0.00;;
72379;SDS011;60354;47.798;12.472;2023-08-06T14:04:48;0.10;;;0.10;;
72379;SDS011;60354;47.798;12.472;2023-08-06T14:07:14;0.20;;;0.20;;
72379;SDS011;60354;47.798;12.472;2023-08-06T14:09:39;0.20;;;0.13;;
72379;SDS011;60354;47.798;12.472;2023-08-06T14:12:05;0.20;;;0.10;;
72379;SDS011;60354;47.798;12.472;2023-08-06T14:14:31;1.55;;;0.10;;
72379;SDS011;60354;47.798;12.472;2023-08-06T14:16:57;0.10;;;0.00;;
72379;SDS011;60354;47.798;12.472;2023-08-06T14:19:22;0.10;;;0.00;;
72379;SDS011;60354;47.798;12.472;2023-08-06T14:21:48;0.15;;;0.00;;
72379;SDS011;60354;47.798;12.472;2023-08-06T14:24:14;0.13;;;0.10;;
72379;SDS011;60354;47.798;12.472;2023-08-06T14:26:40;0.30;;;0.20;;
72379;SDS011;60354;47.798;12.472;2023-08-06T14:29:06;0.10;;;0.10;;
72379;SDS011;60354;47.798;12.472;2023-08-06T14:31:31;0.50;;;0.50;;
72379;SDS011;60354;47.798;12.472;2023-08-06T14:33:57;1.15;;;0.20;;
72379;SDS011;60354;47.798;12.472;2023-08-06T14:36:22;0.20;;;0.20;;
72379;SDS011;60354;47.798;12.472;2023-08-06T14:38:48;0.75;;;0.30;;